Time;durP1;ratioP1;P1;durP2;ratioP2;P2;SDS_P1;SDS_P2;PMS_P1;PMS_P2;Temp;Humidity;BMP_temperature;BMP_pressure;BME280_temperature;BME280_humidity;BME280_pressure;Samples;Min_cycle;Max_cycle;Signal;HPM_P1;HPM_P2
2023/08/11 00:00:08;;;;;;;6.70;3.50;;;;;;;24.20;47.95;100487.49;108407;1277;22029;-58
2023/08/11 00:02:35;;;;;;;7.40;4.10;;;;;;;24.23;48.24;100484.85;108287;1280;22021;-58
2023/08/11 00:05:02;;;;;;;5.80;3.20;;;;;;;24.25;48.05;100482.95;108441;1282;21977;-58
2023/08/11 00:07:28;;;;;;;4.90;3.60;;;;;;;24.25;48.19;100477.52;108335;1276;22096;-61
2023/08/11 00:09:55;;;;;;;7.70;4.30;;;;;;;24.26;48.19;100476.41;108377;1278;21985;-60
2023/08/11 00:12:20;;;;;;;5.80;3.80;;;;;;;24.27;48.13;100473.83;108384;1281;21986;-66
2023/08/11 00:14:46;;;;;;;5.20;3.50;;;;;;;24.27;47.98;100473.23;108299;1281;21981;-60
2023/08/11 00:17:11;;;;;;;4.60;3.20;;;;;;;24.29;47.94;100475.83;108354;1277;21989;-81
2023/08/11 00:19:37;;;;;;;4.90;3.20;;;;;;;24.31;47.89;100481.77;108353;1282;22023;-59
2023/08/11 00:22:03;;;;;;;6.30;3.50;;;;;;;24.34;47.69;100488.72;108472;1280;22021;-80
2023/08/11 00:24:29;;;;;;;7.70;3.90;;;;;;;24.37;47.64;100491.05;108440;1277;21981;-82
2023/08/11 00:26:54;;;;;;;5.50;3.20;;;;;;;24.38;47.77;100489.71;108451;1278;23556;-59
2023/08/11 00:29:21;;;;;;;6.00;3.90;;;;;;;24.38;47.84;100486.88;108403;1278;22679;-59
2023/08/11 00:31:46;;;;;;;6.10;3.60;;;;;;;24.36;47.82;100478.90;108336;1277;21985;-80
2023/08/11 00:34:12;;;;;;;6.00;3.10;;;;;;;24.35;47.98;100475.76;108356;1280;22053;-59
2023/08/11 00:36:38;;;;;;;5.60;3.40;;;;;;;24.31;47.98;100473.11;108360;1278;21985;-60
2023/08/11 00:39:03;;;;;;;7.50;4.10;;;;;;;24.29;47.97;100470.09;108318;1282;21984;-59
2023/08/11 00:41:30;;;;;;;5.60;3.30;;;;;;;24.27;47.94;100469.46;108234;1271;21989;-59
2023/08/11 00:43:56;;;;;;;5.90;3.90;;;;;;;24.25;48.08;100469.43;108353;1282;22158;-78
2023/08/11 00:46:22;;;;;;;6.30;3.90;;;;;;;24.22;48.18;100471.96;108120;1283;21996;-58
2023/08/11 00:48:51;;;;;;;7.30;3.50;;;;;;;24.19;48.03;100476.48;108363;1277;21985;-59
2023/08/11 00:51:18;;;;;;;6.20;3.40;;;;;;;24.17;48.08;100480.19;108385;1276;21994;-79
2023/08/11 00:53:45;;;;;;;6.70;3.30;;;;;;;24.15;48.17;100477.63;108380;1277;23699;-81
2023/08/11 00:56:10;;;;;;;5.30;3.70;;;;;;;24.13;48.09;100471.84;108369;1276;23101;-59
2023/08/11 00:58:36;;;;;;;5.90;3.70;;;;;;;24.12;48.29;100468.36;108081;1283;22012;-59
2023/08/11 01:01:04;;;;;;;6.60;3.70;;;;;;;24.10;48.09;100465.45;108097;1279;21986;-58
2023/08/11 01:03:30;;;;;;;6.40;4.00;;;;;;;24.07;48.37;100465.25;108354;1276;21988;-80
2023/08/11 01:06:11;;;;;;;6.30;3.70;;;;;;;24.03;48.31;100460.36;108360;1281;21994;-59
2023/08/11 01:08:42;;;;;;;8.30;3.40;;;;;;;24.00;48.52;100464.50;108377;1277;21981;-58
2023/08/11 01:11:19;;;;;;;5.70;3.50;;;;;;;23.98;48.47;100466.41;108389;1277;21974;-81
2023/08/11 01:13:48;;;;;;;5.80;3.20;;;;;;;23.97;48.56;100471.45;108345;1280;22041;-80
2023/08/11 01:16:13;;;;;;;6.20;3.80;;;;;;;23.97;48.67;100474.68;108161;1281;23053;-59
2023/08/11 01:18:39;;;;;;;7.50;4.00;;;;;;;23.98;48.78;100472.86;108113;1282;22021;-79
2023/08/11 01:21:10;;;;;;;5.70;4.00;;;;;;;23.99;48.67;100467.08;108159;1283;21991;-59
2023/08/11 01:23:36;;;;;;;6.90;4.50;;;;;;;23.99;48.98;100455.08;108291;1282;23752;-79
2023/08/11 01:26:01;;;;;;;4.50;3.40;;;;;;;23.97;48.85;100447.98;108122;1283;21993;-80
2023/08/11 01:28:27;;;;;;;6.40;3.50;;;;;;;23.97;48.76;100448.20;108099;1278;21989;-59
2023/08/11 01:30:53;;;;;;;8.40;4.10;;;;;;;23.96;48.99;100448.98;108316;1282;22021;-78
2023/08/11 01:33:18;;;;;;;6.60;4.00;;;;;;;23.93;48.97;100453.08;108395;1277;21984;-59
2023/08/11 01:35:44;;;;;;;7.00;4.40;;;;;;;23.91;49.08;100454.13;108368;1273;22006;-59
2023/08/11 01:38:10;;;;;;;7.20;4.70;;;;;;;23.88;49.22;100457.50;108347;1277;21983;-79
2023/08/11 01:40:37;;;;;;;6.70;3.80;;;;;;;23.87;49.08;100457.09;108340;1276;21989;-81
2023/08/11 01:43:03;;;;;;;9.20;4.20;;;;;;;23.85;49.17;100456.30;108370;1278;21997;-59
2023/08/11 01:45:29;;;;;;;8.70;3.90;;;;;;;23.85;49.35;100457.23;108409;1282;21987;-80
2023/08/11 01:47:54;;;;;;;5.40;3.80;;;;;;;23.83;49.52;100459.13;108343;1282;21987;-79
2023/08/11 01:50:20;;;;;;;8.50;4.00;;;;;;;23.79;49.60;100458.15;108247;1277;22019;-59
2023/08/11 01:52:46;;;;;;;10.90;4.10;;;;;;;23.75;49.77;100461.81;108245;1282;21982;-78
2023/08/11 01:55:13;;;;;;;6.00;3.90;;;;;;;23.73;49.68;100467.50;108439;1277;23641;-80
2023/08/11 01:57:41;;;;;;;6.50;3.80;;;;;;;23.73;49.86;100471.83;108446;1280;21983;-74
2023/08/11 02:00:16;;;;;;;5.90;3.60;;;;;;;23.73;49.89;100472.33;108426;1282;21984;-81
2023/08/11 02:02:44;;;;;;;5.90;3.80;;;;;;;23.70;49.90;100476.12;108322;1282;21986;-59
2023/08/11 02:05:15;;;;;;;7.80;3.60;;;;;;;23.69;49.79;100481.59;108489;1280;21986;-59
2023/08/11 02:07:41;;;;;;;10.80;4.00;;;;;;;23.67;50.24;100483.10;108476;1272;23055;-59
2023/08/11 02:10:08;;;;;;;8.70;4.20;;;;;;;23.66;50.36;100486.62;108492;1277;21952;-58
2023/08/11 02:12:36;;;;;;;5.50;3.90;;;;;;;23.67;50.19;100492.79;108478;1281;21981;-82
2023/08/11 02:15:01;;;;;;;11.40;4.10;;;;;;;23.69;50.00;100492.14;108521;1277;22037;-80
2023/08/11 02:17:27;;;;;;;5.20;3.40;;;;;;;23.71;49.91;100491.10;108095;1282;23313;-59
2023/08/11 02:19:53;;;;;;;7.90;3.60;;;;;;;23.73;50.19;100485.25;108438;1281;21986;-81
2023/08/11 02:22:19;;;;;;;10.00;4.00;;;;;;;23.74;50.06;100487.86;108464;1277;22009;-59
2023/08/11 02:24:45;;;;;;;6.50;3.30;;;;;;;23.75;49.90;100495.28;108443;1276;21990;-59
2023/08/11 02:27:10;;;;;;;7.10;4.00;;;;;;;23.77;49.83;100503.23;108446;1280;22454;-82
2023/08/11 02:29:36;;;;;;;6.60;3.80;;;;;;;23.79;49.85;100508.30;108107;1279;23631;-81
2023/08/11 02:32:05;;;;;;;5.70;3.80;;;;;;;23.80;49.81;100517.55;108588;1276;21988;-83
2023/08/11 02:34:31;;;;;;;7.70;3.80;;;;;;;23.80;49.96;100519.89;108474;1277;22000;-59
2023/08/11 02:36:56;;;;;;;6.50;3.80;;;;;;;23.77;49.90;100521.86;108460;1275;21985;-59
2023/08/11 02:39:23;;;;;;;5.80;3.40;;;;;;;23.78;49.89;100522.73;108414;1280;22003;-59
2023/08/11 02:41:49;;;;;;;7.50;3.70;;;;;;;23.81;50.08;100523.07;108461;1281;21988;-58
2023/08/11 02:44:14;;;;;;;5.90;3.60;;;;;;;23.84;50.00;100521.80;108427;1277;21986;-58
2023/08/11 02:46:40;;;;;;;5.50;3.60;;;;;;;23.86;50.00;100522.75;108413;1277;21979;-81
2023/08/11 02:49:07;;;;;;;5.00;3.70;;;;;;;23.85;50.01;100522.98;108517;1280;24323;-82
2023/08/11 02:51:33;;;;;;;5.30;3.50;;;;;;;23.83;49.92;100523.08;108366;1277;21986;-59
2023/08/11 02:53:59;;;;;;;5.50;3.80;;;;;;;23.83;49.98;100522.95;108482;1277;22141;-57
2023/08/11 02:56:25;;;;;;;5.00;3.60;;;;;;;23.82;50.03;100524.64;108336;1276;21993;-81
2023/08/11 02:58:52;;;;;;;7.80;3.50;;;;;;;23.77;50.15;100523.48;108367;1277;23661;-57
2023/08/11 03:01:18;;;;;;;5.90;3.30;;;;;;;23.73;50.10;100526.07;108340;1281;21978;-58
2023/08/11 03:03:43;;;;;;;6.20;3.50;;;;;;;23.72;49.94;100524.91;108440;1276;21998;-82
2023/08/11 03:06:10;;;;;;;7.80;3.50;;;;;;;23.71;50.00;100522.63;108230;1273;21987;-80
2023/08/11 03:08:39;;;;;;;6.70;3.40;;;;;;;23.70;50.28;100518.39;108335;1281;21986;-80
2023/08/11 03:11:05;;;;;;;9.60;3.90;;;;;;;23.66;50.32;100512.75;108478;1277;22021;-79
2023/08/11 03:13:30;;;;;;;6.80;3.70;;;;;;;23.59;50.30;100509.05;108434;1277;23718;-59
2023/08/11 03:15:56;;;;;;;7.90;3.70;;;;;;;23.54;50.78;100511.57;108408;1280;22019;-81
2023/08/11 03:18:22;;;;;;;5.30;3.50;;;;;;;23.50;50.57;100515.38;108387;1281;24333;-58
2023/08/11 03:20:47;;;;;;;4.60;3.20;;;;;;;23.48;50.49;100520.73;108385;1273;21984;-79
2023/08/11 03:23:13;;;;;;;9.70;4.40;;;;;;;23.47;50.75;100520.77;108345;1281;21983;-58
2023/08/11 03:25:39;;;;;;;8.10;4.00;;;;;;;23.45;50.70;100517.45;108299;1281;21983;-80
2023/08/11 03:28:05;;;;;;;7.50;3.30;;;;;;;23.45;50.66;100514.75;108488;1277;21989;-59
2023/08/11 03:30:31;;;;;;;6.70;3.20;;;;;;;23.46;50.75;100511.31;108458;1282;22029;-78
2023/08/11 03:32:57;;;;;;;11.60;4.30;;;;;;;23.46;50.75;100513.33;108634;1280;22040;-59
2023/08/11 03:35:23;;;;;;;7.50;3.80;;;;;;;23.44;50.87;100519.84;108624;1277;21984;-59
2023/08/11 03:37:49;;;;;;;8.00;4.50;;;;;;;23.43;50.95;100527.09;108509;1281;21984;-82
2023/08/11 03:40:16;;;;;;;5.50;3.60;;;;;;;23.42;51.20;100529.13;108469;1280;21981;-81
2023/08/11 03:42:42;;;;;;;6.00;3.00;;;;;;;23.40;51.34;100529.63;108470;1281;22423;-58
2023/08/11 03:45:12;;;;;;;8.60;2.90;;;;;;;23.40;51.46;100528.55;108464;1282;21990;-80
2023/08/11 03:47:41;;;;;;;10.30;3.50;;;;;;;23.41;51.55;100530.95;108485;1276;21987;-58
2023/08/11 03:50:07;;;;;;;6.10;3.30;;;;;;;23.43;51.56;100535.30;108724;1281;21984;-61
2023/08/11 03:52:34;;;;;;;7.30;3.70;;;;;;;23.47;51.91;100530.99;108507;1280;21989;-80
2023/08/11 03:54:59;;;;;;;9.30;3.50;;;;;;;23.50;51.85;100530.94;108488;1273;23719;-80
2023/08/11 03:57:28;;;;;;;8.80;3.00;;;;;;;23.55;51.67;100534.42;108293;1279;21988;-58
2023/08/11 03:59:53;;;;;;;6.90;3.20;;;;;;;23.59;51.83;100536.45;108430;1276;21983;-81
2023/08/11 04:02:19;;;;;;;8.70;3.80;;;;;;;23.64;51.95;100534.87;108444;1277;23631;-79
2023/08/11 04:04:45;;;;;;;7.00;3.20;;;;;;;23.70;51.84;100537.73;108439;1277;21985;-58
2023/08/11 04:07:11;;;;;;;7.80;3.60;;;;;;;23.76;51.43;100532.35;108484;1276;21993;-58
2023/08/11 04:09:43;;;;;;;7.80;4.10;;;;;;;23.83;51.48;100524.36;108500;1272;21983;-59
2023/08/11 04:12:09;;;;;;;5.70;3.20;;;;;;;23.89;51.60;100518.36;108495;1280;21998;-81
2023/08/11 04:14:37;;;;;;;8.40;3.10;;;;;;;23.93;51.46;100514.71;108496;1282;23618;-77
2023/08/11 04:17:03;;;;;;;10.50;3.20;;;;;;;23.99;51.42;100507.75;108457;1281;21986;-58
2023/08/11 04:19:28;;;;;;;6.80;3.30;;;;;;;24.05;51.66;100506.63;108446;1281;21993;-59
2023/08/11 04:21:54;;;;;;;9.10;3.70;;;;;;;24.12;51.72;100505.96;108445;1277;22017;-78
2023/08/11 04:24:20;;;;;;;8.10;3.10;;;;;;;24.18;51.67;100500.75;108441;1280;23609;-81
2023/08/11 04:26:45;;;;;;;6.90;3.50;;;;;;;24.22;51.66;100500.88;108500;1276;21980;-80
2023/08/11 04:29:12;;;;;;;7.00;3.80;;;;;;;24.24;51.53;100500.55;108468;1276;21940;-71
2023/08/11 04:31:40;;;;;;;8.20;3.10;;;;;;;24.25;51.53;100498.67;108488;1274;21993;-58
2023/08/11 04:34:06;;;;;;;8.50;3.40;;;;;;;24.26;51.81;100499.31;108572;1275;21987;-80
2023/08/11 04:36:32;;;;;;;11.50;3.60;;;;;;;24.27;51.75;100498.89;108529;1280;22021;-59
2023/08/11 04:38:58;;;;;;;8.80;3.80;;;;;;;24.29;51.86;100500.02;108482;1281;22451;-59
2023/08/11 04:41:24;;;;;;;6.80;3.50;;;;;;;24.31;52.08;100497.91;108461;1276;22450;-81
2023/08/11 04:43:49;;;;;;;6.20;3.60;;;;;;;24.33;51.94;100495.81;108224;1273;22052;-59
2023/08/11 04:46:15;;;;;;;8.40;3.60;;;;;;;24.35;52.33;100498.72;108465;1276;21992;-81
2023/08/11 04:48:41;;;;;;;8.60;3.20;;;;;;;24.39;52.34;100504.02;108459;1276;21991;-81
2023/08/11 04:51:06;;;;;;;7.30;3.30;;;;;;;24.43;52.48;100502.12;108476;1281;21956;-62
2023/08/11 04:53:32;;;;;;;8.10;3.40;;;;;;;24.49;52.45;100496.85;108476;1281;21999;-59
2023/08/11 04:55:57;;;;;;;6.50;3.50;;;;;;;24.57;52.48;100500.08;108506;1281;23628;-60
2023/08/11 04:58:23;;;;;;;7.40;3.30;;;;;;;24.68;52.59;100500.20;108502;1281;21984;-59
2023/08/11 05:00:48;;;;;;;4.80;3.40;;;;;;;24.82;52.95;100497.48;108452;1280;21977;-59
2023/08/11 05:03:14;;;;;;;5.80;3.30;;;;;;;24.97;52.82;100489.75;108420;1277;21994;-79
2023/08/11 05:05:41;;;;;;;8.90;3.20;;;;;;;25.14;52.69;100490.05;108495;1276;22020;-80
2023/08/11 05:08:07;;;;;;;5.80;3.30;;;;;;;25.29;52.48;100491.30;108454;1280;23641;-82
2023/08/11 05:10:33;;;;;;;6.30;3.30;;;;;;;25.43;52.26;100482.70;108506;1281;21984;-59
2023/08/11 05:12:59;;;;;;;6.30;2.90;;;;;;;25.57;52.25;100479.02;108485;1282;21980;-59
2023/08/11 05:15:24;;;;;;;6.50;3.00;;;;;;;25.73;52.15;100476.61;108415;1280;22020;-59
2023/08/11 05:17:50;;;;;;;8.30;3.60;;;;;;;25.88;52.02;100473.84;108402;1281;22032;-79
2023/08/11 05:20:16;;;;;;;8.80;3.20;;;;;;;26.04;51.67;100464.25;108459;1274;21997;-82
2023/08/11 05:22:43;;;;;;;7.60;2.90;;;;;;;26.17;51.48;100461.45;108400;1280;24149;-59
2023/08/11 05:25:09;;;;;;;7.00;3.20;;;;;;;26.28;51.40;100462.83;108470;1281;21996;-80
2023/08/11 05:27:35;;;;;;;4.60;3.40;;;;;;;26.40;51.35;100460.97;108475;1281;23618;-71
2023/08/11 05:30:01;;;;;;;5.90;3.60;;;;;;;26.52;51.15;100467.06;108451;1281;23712;-79
2023/08/11 05:32:27;;;;;;;6.20;3.30;;;;;;;26.61;51.04;100463.63;108427;1281;23062;-81
2023/08/11 05:34:52;;;;;;;4.90;2.90;;;;;;;26.73;50.90;100463.23;108466;1277;23675;-60
2023/08/11 05:37:18;;;;;;;6.20;3.20;;;;;;;26.86;50.92;100465.88;108497;1280;22452;-60
2023/08/11 05:39:44;;;;;;;5.30;2.90;;;;;;;27.00;50.89;100472.09;108474;1277;21970;-59
2023/08/11 05:42:09;;;;;;;5.40;3.20;;;;;;;27.18;50.75;100478.25;108453;1277;21983;-59
2023/08/11 05:44:35;;;;;;;4.70;3.00;;;;;;;27.34;50.33;100479.30;108449;1281;21979;-60
2023/08/11 05:47:01;;;;;;;5.30;3.50;;;;;;;27.47;50.25;100478.25;108435;1281;21989;-79
2023/08/11 05:49:27;;;;;;;6.30;3.70;;;;;;;27.60;49.96;100480.70;108635;1280;23769;-82
2023/08/11 05:51:52;;;;;;;5.80;3.50;;;;;;;27.69;49.82;100481.73;108238;1283;23682;-59
2023/08/11 05:54:18;;;;;;;7.30;3.00;;;;;;;27.83;49.89;100487.08;108401;1277;22023;-59
2023/08/11 05:56:43;;;;;;;7.10;3.20;;;;;;;28.00;49.91;100491.44;108484;1270;21983;-59
2023/08/11 05:59:09;;;;;;;9.00;3.20;;;;;;;28.21;49.82;100499.05;108462;1278;22008;-66
2023/08/11 06:01:35;;;;;;;8.10;3.40;;;;;;;28.43;49.40;100498.25;108439;1276;23708;-80
2023/08/11 06:04:02;;;;;;;5.10;2.70;;;;;;;28.62;49.28;100502.25;108272;1277;23637;-60
2023/08/11 06:06:28;;;;;;;5.40;3.10;;;;;;;28.77;48.83;100502.02;108516;1276;21993;-59
2023/08/11 06:08:54;;;;;;;5.30;3.20;;;;;;;28.85;48.33;100498.46;108472;1281;21978;-78
2023/08/11 06:11:21;;;;;;;4.50;3.30;;;;;;;28.92;48.17;100494.55;108122;1281;23513;-59
2023/08/11 06:13:46;;;;;;;7.20;3.00;;;;;;;29.00;48.08;100492.86;108467;1280;21978;-80
2023/08/11 06:16:12;;;;;;;5.10;3.10;;;;;;;29.07;47.78;100490.77;108242;1280;21984;-59
2023/08/11 06:18:38;;;;;;;13.70;6.60;;;;;;;29.21;47.82;100491.90;108526;1277;21983;-59
2023/08/11 06:21:05;;;;;;;32.30;16.80;;;;;;;29.36;47.55;100494.17;108479;1280;21980;-59
2023/08/11 06:23:31;;;;;;;12.00;7.30;;;;;;;29.52;47.58;100492.91;108585;1276;21963;-59
2023/08/11 06:25:57;;;;;;;15.10;9.70;;;;;;;29.68;47.24;100495.14;108443;1280;21995;-79
2023/08/11 06:28:23;;;;;;;12.50;7.60;;;;;;;29.82;47.28;100496.33;108200;1282;23623;-59
2023/08/11 06:30:49;;;;;;;12.50;7.70;;;;;;;29.94;47.21;100501.37;108405;1276;21991;-78
2023/08/11 06:33:15;;;;;;;5.50;3.40;;;;;;;30.17;46.92;100506.21;108452;1274;21993;-59
2023/08/11 06:35:42;;;;;;;6.90;3.10;;;;;;;30.28;46.03;100508.77;108452;1281;22440;-59
2023/08/11 06:38:09;;;;;;;6.40;4.00;;;;;;;30.38;45.78;100506.39;108525;1277;21991;-59
2023/08/11 06:40:38;;;;;;;5.80;3.70;;;;;;;30.51;45.75;100506.42;108469;1281;22007;-59
2023/08/11 06:43:04;;;;;;;5.00;2.70;;;;;;;30.65;44.97;100501.88;108504;1281;22427;-59
2023/08/11 06:45:30;;;;;;;4.90;2.50;;;;;;;30.71;44.77;100489.91;108461;1273;21980;-78
2023/08/11 06:47:55;;;;;;;5.70;2.50;;;;;;;30.76;44.26;100482.97;108451;1276;22020;-59
2023/08/11 06:50:21;;;;;;;8.50;2.50;;;;;;;30.79;44.08;100478.51;108668;1281;21993;-77
2023/08/11 06:52:47;;;;;;;8.70;2.40;;;;;;;30.89;44.19;100478.27;108581;1273;21981;-79
2023/08/11 06:55:13;;;;;;;7.20;2.20;;;;;;;31.00;43.60;100481.54;108678;1277;23743;-60
2023/08/11 06:57:38;;;;;;;4.80;2.30;;;;;;;31.08;43.49;100477.29;108438;1279;21996;-59
2023/08/11 07:00:07;;;;;;;5.00;2.00;;;;;;;31.19;43.58;100473.05;108640;1277;21956;-77
2023/08/11 07:02:33;;;;;;;4.30;1.90;;;;;;;31.25;42.67;100473.11;110114;1276;21993;-60
2023/08/11 07:05:00;;;;;;;3.70;2.00;;;;;;;31.34;42.80;100478.07;108546;1276;21987;-59
2023/08/11 07:07:25;;;;;;;3.60;2.00;;;;;;;31.49;42.78;100479.36;108463;1277;21980;-59
2023/08/11 07:09:51;;;;;;;6.00;1.90;;;;;;;31.60;42.61;100478.08;108428;1277;24225;-59
2023/08/11 07:12:16;;;;;;;8.80;2.20;;;;;;;31.70;42.23;100468.86;108416;1280;21998;-59
2023/08/11 07:14:42;;;;;;;6.30;1.80;;;;;;;31.81;41.75;100472.36;108502;1276;21987;-79
2023/08/11 07:17:08;;;;;;;6.30;1.50;;;;;;;31.85;41.26;100470.29;108192;1282;23722;-59
2023/08/11 07:19:35;;;;;;;3.20;1.90;;;;;;;31.85;40.96;100475.59;108492;1277;21980;-77
2023/08/11 07:22:00;;;;;;;3.90;2.00;;;;;;;31.75;40.09;100472.71;108141;1282;22767;-59
2023/08/11 07:24:26;;;;;;;4.90;2.00;;;;;;;31.63;39.93;100465.92;108387;1281;22020;-59
2023/08/11 07:26:51;;;;;;;2.50;1.60;;;;;;;31.58;40.71;100461.90;108372;1281;21980;-78
2023/08/11 07:29:18;;;;;;;16.20;3.40;;;;;;;31.60;40.34;100459.54;108456;1281;24375;-78
2023/08/11 07:31:44;;;;;;;4.80;1.90;;;;;;;31.60;39.86;100458.11;108179;1280;24342;-77
2023/08/11 07:34:09;;;;;;;3.50;1.90;;;;;;;31.55;39.75;100464.97;108409;1280;22450;-80
2023/08/11 07:36:36;;;;;;;7.70;2.20;;;;;;;31.49;39.87;100463.98;108397;1278;23728;-59
2023/08/11 07:39:02;;;;;;;15.50;3.10;;;;;;;31.45;39.95;100455.02;108401;1281;21983;-77
2023/08/11 07:41:29;;;;;;;3.00;1.70;;;;;;;31.42;39.88;100450.75;108474;1270;22103;-76
2023/08/11 07:43:54;;;;;;;2.80;1.70;;;;;;;31.38;39.87;100451.73;108435;1279;21983;-77
2023/08/11 07:46:20;;;;;;;5.00;2.10;;;;;;;31.37;39.89;100449.48;108390;1281;21982;-79
2023/08/11 07:48:46;;;;;;;4.40;1.80;;;;;;;31.32;39.67;100447.83;108559;1278;22095;-76
2023/08/11 07:51:14;;;;;;;5.00;2.10;;;;;;;31.25;39.40;100444.83;108425;1276;23634;-79
2023/08/11 07:53:40;;;;;;;5.60;1.80;;;;;;;31.26;39.31;100440.56;108482;1276;21992;-60
2023/08/11 07:56:05;;;;;;;4.50;1.80;;;;;;;31.30;39.08;100429.67;108440;1280;21998;-59
2023/08/11 07:58:31;;;;;;;6.50;2.00;;;;;;;31.35;39.19;100424.34;108455;1278;22021;-59
2023/08/11 08:00:57;;;;;;;5.00;2.20;;;;;;;31.41;39.01;100428.21;108426;1280;23727;-59
2023/08/11 08:03:23;;;;;;;4.90;1.80;;;;;;;31.50;38.93;100431.13;108384;1281;21989;-60
2023/08/11 08:05:49;;;;;;;6.20;2.20;;;;;;;31.63;38.89;100428.77;108363;1273;21983;-77
2023/08/11 08:08:15;;;;;;;6.50;2.10;;;;;;;31.75;39.08;100426.15;108015;1283;23745;-75
2023/08/11 08:10:41;;;;;;;4.60;2.10;;;;;;;31.87;38.96;100422.95;108191;1281;21989;-74
2023/08/11 08:13:07;;;;;;;8.40;2.40;;;;;;;31.83;39.10;100422.76;108372;1280;21988;-75
2023/08/11 08:15:32;;;;;;;4.70;1.70;;;;;;;32.03;38.18;100416.21;108427;1277;23720;-74
2023/08/11 08:17:58;;;;;;;3.80;1.80;;;;;;;32.23;37.57;100416.59;108397;1281;22847;-60
2023/08/11 08:20:24;;;;;;;3.80;1.80;;;;;;;32.37;37.58;100419.16;108383;1278;21986;-73
2023/08/11 08:22:49;;;;;;;2.70;1.60;;;;;;;32.48;37.91;100420.31;108372;1280;21983;-60
2023/08/11 08:25:15;;;;;;;5.80;2.10;;;;;;;32.68;37.57;100426.20;108375;1270;21987;-60
2023/08/11 08:27:41;;;;;;;8.00;2.20;;;;;;;32.81;36.74;100427.77;108227;1280;21986;-60
2023/08/11 08:30:09;;;;;;;4.20;2.20;;;;;;;32.87;36.22;100424.48;108372;1280;22453;-76
2023/08/11 08:32:36;;;;;;;5.50;2.10;;;;;;;32.89;36.27;100431.48;108477;1282;23141;-60
2023/08/11 08:35:03;;;;;;;4.80;2.10;;;;;;;32.90;36.22;100432.84;108456;1271;22079;-73
2023/08/11 08:37:28;;;;;;;4.00;1.90;;;;;;;32.94;35.98;100437.89;108476;1277;21984;-75
2023/08/11 08:39:55;;;;;;;2.80;1.90;;;;;;;32.99;35.72;100439.72;108223;1282;21990;-60
2023/08/11 08:42:21;;;;;;;4.30;2.00;;;;;;;33.05;35.69;100442.34;108369;1277;21991;-77
2023/08/11 08:44:47;;;;;;;5.50;1.50;;;;;;;32.99;36.01;100449.33;108137;1279;22020;-74
2023/08/11 08:47:13;;;;;;;2.60;1.80;;;;;;;32.84;36.24;100449.99;108448;1280;21984;-74
2023/08/11 08:49:39;;;;;;;4.70;1.90;;;;;;;32.81;36.27;100448.86;108140;1279;22062;-60
2023/08/11 08:52:05;;;;;;;5.60;2.90;;;;;;;33.03;36.43;100451.62;108105;1280;21987;-76
2023/08/11 08:54:32;;;;;;;12.70;6.80;;;;;;;33.16;36.18;100456.13;108645;1282;21992;-76
2023/08/11 08:56:59;;;;;;;6.60;3.40;;;;;;;33.28;35.80;100455.14;108391;1277;24025;-75
2023/08/11 08:59:24;;;;;;;5.90;2.10;;;;;;;33.43;35.97;100453.56;108422;1282;21998;-60
2023/08/11 09:01:50;;;;;;;5.70;1.80;;;;;;;33.60;35.42;100452.86;108348;1282;21990;-60
2023/08/11 09:04:16;;;;;;;2.60;1.70;;;;;;;33.66;35.13;100450.19;108387;1282;22076;-61
2023/08/11 09:06:41;;;;;;;3.90;1.90;;;;;;;33.73;35.11;100448.72;108404;1282;22042;-74
2023/08/11 09:09:08;;;;;;;6.10;2.50;;;;;;;33.85;35.35;100449.19;108360;1277;21988;-63
2023/08/11 09:11:34;;;;;;;4.20;1.70;;;;;;;33.97;34.92;100449.73;108484;1273;21987;-62
2023/08/11 09:14:03;;;;;;;4.10;1.70;;;;;;;34.04;34.48;100451.10;108434;1282;22000;-63
2023/08/11 09:16:30;;;;;;;3.20;1.60;;;;;;;34.12;34.16;100451.91;108345;1281;21990;-61
2023/08/11 09:18:56;;;;;;;4.50;2.00;;;;;;;34.26;34.47;100453.13;108482;1274;21991;-61
2023/08/11 09:21:25;;;;;;;3.60;1.70;;;;;;;34.39;34.46;100448.31;108224;1283;21992;-74
2023/08/11 09:23:56;;;;;;;4.30;2.50;;;;;;;34.50;34.04;100444.45;108431;1281;21988;-60
2023/08/11 09:26:22;;;;;;;4.50;2.70;;;;;;;34.62;33.97;100437.99;108474;1282;21979;-61
2023/08/11 09:28:50;;;;;;;6.40;3.10;;;;;;;34.56;32.63;100432.23;108447;1282;22015;-78
2023/08/11 09:31:23;;;;;;;8.40;3.30;;;;;;;34.56;33.67;100433.54;108494;1274;21989;-76
2023/08/11 09:33:49;;;;;;;3.90;2.10;;;;;;;34.64;34.39;100433.74;108468;1280;23609;-76
2023/08/11 09:36:17;;;;;;;4.40;1.50;;;;;;;34.80;34.37;100428.05;108494;1282;21989;-76
2023/08/11 09:38:48;;;;;;;3.70;1.70;;;;;;;35.03;34.17;100429.54;108556;1280;22014;-60
2023/08/11 09:41:15;;;;;;;3.10;1.50;;;;;;;35.20;34.07;100422.71;108266;1282;22735;-60
2023/08/11 09:43:48;;;;;;;3.30;1.60;;;;;;;35.34;32.80;100419.73;108488;1274;21983;-74
2023/08/11 09:46:13;;;;;;;4.30;1.60;;;;;;;35.44;32.90;100419.98;108461;1280;22021;-60
2023/08/11 09:48:39;;;;;;;5.10;1.80;;;;;;;35.53;32.83;100414.35;108421;1280;21986;-61
2023/08/11 09:51:10;;;;;;;3.90;1.80;;;;;;;35.51;32.57;100420.27;108240;1277;21985;-60
2023/08/11 09:53:42;;;;;;;5.00;1.80;;;;;;;35.51;32.69;100415.72;108184;1282;21986;-74
2023/08/11 09:56:09;;;;;;;4.50;2.40;;;;;;;35.52;32.36;100418.77;108186;1279;23729;-75
2023/08/11 09:58:35;;;;;;;4.70;2.00;;;;;;;35.59;31.67;100419.73;108485;1277;21982;-75
2023/08/11 10:01:01;;;;;;;3.50;2.00;;;;;;;35.73;31.46;100413.90;108207;1270;21980;-60
2023/08/11 10:03:28;;;;;;;3.60;2.20;;;;;;;35.83;30.98;100408.89;108437;1282;21986;-60
2023/08/11 10:05:54;;;;;;;4.70;1.90;;;;;;;35.97;32.21;100404.27;108095;1282;21993;-61
2023/08/11 10:08:22;;;;;;;6.00;1.90;;;;;;;36.11;31.80;100401.92;108281;1277;21995;-61
2023/08/11 10:10:47;;;;;;;3.70;2.00;;;;;;;36.22;32.17;100401.96;108438;1280;21998;-71
2023/08/11 10:13:21;;;;;;;5.30;1.70;;;;;;;36.37;31.52;100402.98;108458;1278;23708;-60
2023/08/11 10:15:48;;;;;;;6.90;1.90;;;;;;;36.45;31.66;100400.52;108309;1281;23074;-72
2023/08/11 10:18:15;;;;;;;2.40;1.60;;;;;;;36.52;31.45;100402.25;108285;1282;21987;-76
2023/08/11 10:20:41;;;;;;;2.90;1.80;;;;;;;36.60;30.84;100403.89;108466;1277;22017;-75
2023/08/11 10:23:08;;;;;;;4.80;1.90;;;;;;;36.47;30.63;100409.96;108448;1281;22023;-60
2023/08/11 10:25:34;;;;;;;4.10;2.20;;;;;;;36.19;30.99;100407.17;108461;1282;21986;-60
2023/08/11 10:28:00;;;;;;;5.40;2.50;;;;;;;35.89;30.64;100412.74;108108;1280;21989;-62
2023/08/11 10:30:26;;;;;;;4.50;2.40;;;;;;;35.65;30.24;100413.38;108416;1280;21993;-62
2023/08/11 10:33:01;;;;;;;4.80;2.00;;;;;;;35.47;30.87;100416.21;108256;1282;22005;-60
2023/08/11 10:35:33;;;;;;;3.60;1.90;;;;;;;35.39;31.08;100415.15;108325;1277;21986;-60
2023/08/11 10:37:59;;;;;;;3.20;2.10;;;;;;;35.33;30.68;100415.34;108445;1277;21992;-61
2023/08/11 10:40:33;;;;;;;5.40;1.80;;;;;;;35.15;30.64;100416.23;108415;1281;21990;-60
2023/08/11 10:42:59;;;;;;;4.70;1.90;;;;;;;34.99;31.05;100414.42;108451;1280;21984;-75
2023/08/11 10:45:24;;;;;;;4.80;1.90;;;;;;;34.93;31.59;100411.23;108250;1281;21989;-75
2023/08/11 10:47:53;;;;;;;4.80;1.70;;;;;;;34.91;30.01;100407.88;108279;1280;22037;-75
2023/08/11 10:50:20;;;;;;;4.00;2.00;;;;;;;34.84;29.65;100403.55;108436;1280;21990;-74
2023/08/11 10:52:46;;;;;;;4.90;1.90;;;;;;;34.85;30.60;100400.05;108481;1278;21993;-74
2023/08/11 10:55:13;;;;;;;2.70;1.70;;;;;;;34.88;30.99;100393.30;108562;1282;22029;-60
2023/08/11 10:57:39;;;;;;;3.10;1.90;;;;;;;34.95;31.40;100384.50;108510;1278;21989;-75
2023/08/11 11:00:06;;;;;;;3.30;1.60;;;;;;;35.08;30.99;100385.91;108509;1281;22735;-75
2023/08/11 11:02:35;;;;;;;3.20;1.70;;;;;;;35.18;30.38;100384.75;108525;1280;23712;-76
2023/08/11 11:05:00;;;;;;;3.60;2.10;;;;;;;35.19;30.08;100381.91;108213;1282;22004;-60
2023/08/11 11:07:26;;;;;;;4.00;2.90;;;;;;;35.13;30.33;100388.95;108421;1277;21940;-62
2023/08/11 11:09:52;;;;;;;4.30;2.30;;;;;;;35.05;30.35;100391.33;108541;1281;21983;-60
2023/08/11 11:12:18;;;;;;;4.30;2.70;;;;;;;35.04;30.73;100383.85;108467;1277;21993;-60